• Join FlightAware (Why Join?)
  • Login
  • US Flag 
12:19AM EDT


 

Airport Tracker/Info


-or-


 

Live Flight TrackerFlight Track Log ✈ SKW5631 ✈ 29-Apr-2013 ✈ KSFO - KSBA

Flight Track Log - Related Links

Times and Time Zones

All times are in EDT time to prevent confusion due to time zone crossing. See the SKW5631 flight status page for this flight to view local times or setup timezone preferences in your user account.

Time Position Orientation Groundspeed Altitude Reporting Facility
EDT Latitude Longitude Course Direction KTS MPH feet Rate Location/Type
10:39AM 37.6667 -122.3667 180° South 172 198 2,200  Level Northern Cal TRACON
10:40AM 37.6833 -122.4167 293° West 217 250 3,600 1,560 Climbing Northern Cal TRACON
10:41AM 37.6333 -122.4333 195° South 207 238 5,400 1,680 Climbing Northern Cal TRACON
10:42AM 37.5667 -122.4333 180° South 218 251 6,800 1,440 Climbing Northern Cal TRACON
10:43AM 37.5167 -122.4333 180° South 222 255 8,200 1,260 Climbing Northern Cal TRACON
10:43AM 37.5019 -122.4389 197° South 224 258 8,400 1,320 Climbing Oakland Center
10:44AM 37.4256 -122.4833 180° South  Level FlightAware Approximate
10:44AM 37.4389 -122.4408 181° South 228 262 9,900  Level Oakland Center
10:45AM 37.3767 -122.4417 181° South 225 259 11,500 1,320 Climbing Oakland Center
10:46AM 37.3150 -122.4417 180° South 220 253 12,700 1,140 Climbing Oakland Center
10:47AM 37.2406 -122.4414 180° South 224 258 13,900 1,020 Climbing Oakland Center
10:48AM 37.1747 -122.4431 181° South 235 270 14,800 960 Climbing Oakland Center
10:49AM 37.1089 -122.4447 181° South 238 274 15,900 1,020 Climbing Oakland Center
10:50AM 37.0531 -122.4061 151° Southeast 238 274 16,900 900 Climbing Oakland Center
10:51AM 36.9981 -122.3644 149° Southeast 234 269 17,800 780 Climbing Oakland Center
10:52AM 36.9411 -122.3217 149° Southeast 239 275 18,600 720 Climbing Oakland Center
10:53AM 36.8825 -122.2786 150° Southeast 246 283 19,300 720 Climbing Oakland Center
10:54AM 36.8233 -122.2339 149° Southeast 249 287 20,100 780 Climbing Oakland Center
10:55AM 36.7647 -122.1894 149° Southeast 248 285 20,900 720 Climbing Oakland Center
10:56AM 36.7069 -122.1467 149° Southeast 245 282 21,600 540 Climbing Oakland Center
10:57AM 36.6456 -122.1078 153° Southeast 249 287 22,100 540 Climbing Oakland Center
10:58AM 36.5725 -122.0533 149° Southeast 254 292 22,800 420 Climbing Oakland Center
10:59AM 36.5122 -122.0075 149° Southeast 255 293 23,000 60 Climbing Oakland Center
11:00AM 36.4467 -121.9592 149° Southeast 272 313 23,000  Level Oakland Center
11:01AM 36.3867 -121.9011 142° Southeast 273 314 23,000  Level Oakland Center
11:02AM 36.3283 -121.8383 139° Southeast 276 318 23,000  Level Oakland Center
11:03AM 36.2661 -121.7753 141° Southeast 275 316 23,000  Level Oakland Center
11:04AM 36.2064 -121.7142 140° Southeast 278 320 23,000  Level Oakland Center
11:05AM 36.1475 -121.6556 141° Southeast 274 315 23,000  Level Oakland Center
11:06AM 36.0881 -121.5969 141° Southeast 273 314 23,000  Level Oakland Center
11:07AM 36.0275 -121.5383 142° Southeast 275 316 23,000  Level Oakland Center
11:08AM 35.9689 -121.4775 140° Southeast 276 318 23,000  Level Oakland Center
11:09AM 35.9081 -121.4203 143° Southeast 276 318 23,000  Level Oakland Center
11:10AM 35.8483 -121.3606 141° Southeast 278 320 23,000  Level Oakland Center
11:11AM 35.7764 -121.2894 141° Southeast 278 320 23,000  Level Oakland Center
11:12AM 35.7167 -121.2294 141° Southeast 280 322 23,000  Level Oakland Center
11:14AM 35.6556 -121.1703 142° Southeast 281 323 23,000  Level Oakland Center
11:15AM 35.5944 -121.1103 141° Southeast 282 325 23,000  Level Oakland Center
11:16AM 35.5328 -121.0508 142° Southeast 283 326 23,000  Level Oakland Center
11:17AM 35.4717 -120.9914 142° Southeast 282 325 23,000  Level Oakland Center
11:18AM 35.4108 -120.9319 141° Southeast 281 323 23,000  Level Oakland Center
11:19AM 35.3511 -120.8731 141° Southeast 279 321 23,000  Level Oakland Center
11:19AM 35.3208 -120.8444 142° Southeast 276 318 23,000 -360 Level Los Angeles Center
11:20AM 35.2600 -120.7867 142° Southeast 276 318 22,500 -900 Descending Los Angeles Center
11:21AM 35.1986 -120.7281 142° Southeast 279 321 21,200 -1,380 Descending Los Angeles Center
11:22AM 35.1233 -120.6547 141° Southeast 286 329 19,700 -1,440 Descending Los Angeles Center
11:23AM 35.0614 -120.5936 141° Southeast 286 329 18,300 -1,500 Descending Los Angeles Center
11:24AM 34.9975 -120.5319 142° Southeast 291 335 16,700 -1,620 Descending Los Angeles Center
11:25AM 34.9317 -120.4706 143° Southeast 296 341 15,000 -1,680 Descending Los Angeles Center
11:26AM 34.9056 -120.4447 141° Southeast 298 343 14,200 -1,500 Descending Los Angeles Center
11:26AM 34.8675 -120.4083 142° Southeast 294 338 13,500 -1,560 Descending Los Angeles Center
11:27AM 34.8378 -120.3800 142° Southeast 296 341 12,800 -1,560 Descending Los Angeles Center
11:27AM 34.8042 -120.3483 142° Southeast 288 331 11,900 -1,740 Descending Los Angeles Center
11:28AM 34.7722 -120.3169 141° Southeast 283 326 11,100 -1,560 Descending Los Angeles Center
11:28AM 34.7433 -120.2889 141° Southeast 282 325 10,300 -1,500 Descending Los Angeles Center
11:29AM 34.7136 -120.2653 147° Southeast 274 315 9,600 -2,040 Descending Los Angeles Center
11:29AM 34.6722 -120.2236 140° Southeast 268 308 8,200 -1,920 Descending Los Angeles Center
11:30AM 34.6536 -120.2086 146° Southeast 262 302 7,700 -1,680 Descending Los Angeles Center
11:30AM 34.6147 -120.1703 141° Southeast 259 298 6,500 -1,800 Descending Los Angeles Center
11:31AM 34.5944 -120.1544 147° Southeast 257 296 5,900 -1,380 Descending Los Angeles Center
11:32AM 34.5594 -120.1203 141° Southeast 253 291 5,100 -540 Descending Los Angeles Center
11:33AM 34.5039 -120.0947 159° South 229 264 5,000 -360 Descending Los Angeles Center
11:34AM 34.4456 -120.0892 176° South 211 243 4,400 -1,140 Descending Los Angeles Center
11:35AM 34.4239 -120.0264 113° Southeast 211 243 2,700 -1,260 Descending Los Angeles Center
11:36AM 34.4267 -119.9706 87° East 188 216 1,900 -660 Descending Los Angeles Center
11:37AM 34.4247 -119.9378 94° East 160 184 1,400 -600 Descending Los Angeles Center
11:38AM 34.4239 -119.8856 91° East 137 158 700 -540 Descending Los Angeles Center
11:39AM 34.4267 -119.8372 86° East 133 153 300 -420 Descending Los Angeles Center
11:41AM 34.4167 -119.8333 North  Level FlightAware Approximate